KHIB

Range Regional Airport

Hibbing, Minnesota, USA
KHIB 232331Z 2400/2424 VRB03KT P6SM SKC TEMPO 2408/2412 4SM BR FM241500 16006KT P6SM SCT150 FM242300 16004KT P6SM BKN100
Issued Valid From Valid To
Oct-23 @ 23:31 UTC
(6 hours ago)
Oct-24 @ 00:00 UTC
(5 hours ago)
Oct-25 @ 00:00 UTC
(in 19 hours)
Oct-24 @ 00:00 to Oct-24 @ 15:00
KHIB 232331Z 2400/2424 VRB03KT P6SM SKC
Wind Visibility Clouds
Variable at 3 knots Greater than 6 miles
  • Clear skies
Temporary Oct-24 @ 08:00 to Oct-24 @ 12:00
TEMPO 2408/2412 4SM BR
Visibility Conditions
4 miles
  • Mist
From Oct-24 @ 15:00 to Oct-24 @ 23:00
FM241500 16006KT P6SM SCT150
Wind Visibility Clouds
160° at 6 knots Greater than 6 miles
  • Scattered at 15,000' AGL
From Oct-24 @ 23:00 to Oct-25 @ 00:00
FM242300 16004KT P6SM BKN100
Wind Visibility Clouds
160° at 4 knots Greater than 6 miles
  • Broken at 10,000' AGL
KHIB 232331Z 2400/2424 VRB03KT P6SM SKC TEMPO 2408/2412 4SM BR FM241500 16006KT P6SM SCT150 FM242300 16004KT P6SM BKN100
Issued Oct-23 @ 23:31 UTC
(6 hours ago)
Valid From Oct-24 @ 00:00 UTC
(5 hours ago)
Valid To Oct-25 @ 00:00 UTC
(in 19 hours)
Oct-24 @ 00:00 - Oct-24 @ 15:00
Wind Visibility
Variable at 3 knots Greater than 6 miles
Clouds
  • Clear skies
Temporary Oct-24 @ 08:00 - Oct-24 @ 12:00
Conditions
  • Mist
From Oct-24 @ 15:00 - Oct-24 @ 23:00
Wind Visibility
160° at 6 knots Greater than 6 miles
Clouds
  • Scattered at 15,000' AGL
From Oct-24 @ 23:00 - Oct-25 @ 00:00
Wind Visibility
160° at 4 knots Greater than 6 miles
Clouds
  • Broken at 10,000' AGL